Weather observations for the past three days for
Avalon Catalina Airport
Imperial (Metric)
Date Time (pdt) Wind (mph) Vis. (mi.) Weather Sky Cond. Temperature (ºF) Relative Humidity Wind Chill (°F) Heat Index (°F) Pressure Precipitation (in)
Air Dwpt 6 hour altimeter (in) sea level (mb) 1 hr 3 hr 6 hr
Max. Min.
10 13:51 W 7 10.00 Fair CLR 68 55.9 65% 29.97 1013.4
10 12:51 Calm 10.00 Fair CLR 68 55.9 65% 29.97 1013.5
10 11:51 W 5 10.00 Fair CLR 66 55.9 70% 29.97 1013.8
10 10:51 W 7 10.00 Fair CLR 64.9 55.9 66 53.1 73% 29.97 1013.6
10 09:51 Vrbl 5 10.00 Fair CLR 60.1 55 84% 29.95 1013.4
10 08:51 Calm 0.50 Fog VV002 55 55 100% 29.95 1013.5
10 07:51 SE 5 0.15 Fog VV001 54 54 100% 29.93 1013.2
10 06:51 E 6 0.15 Fog VV001 54 54 100% 29.92 1012.5
10 04:51 Calm 0.15 Fog VV001 54 54 55 53.1 100% 29.91 1011.7
10 03:51 SE 5 0.15 Fog VV001 54 54 100% 29.92 1011.7
10 02:51 SE 5 0.15 Fog VV001 54 53.1 97% 29.92 1012.0
10 01:51 SE 7 0.15 Fog VV001 54 54 100% 29.92 1011.9
10 00:51 E 7 0.15 Fog VV001 55 54 96% 29.93 1012.5
09 23:51 E 5 0.25 Fog VV001 54 54 100% 29.94 1013.0
09 22:51 SE 3 0.15 Fog VV001 55 54 66.9 54 96% 29.94 1013.1
09 21:51 SE 3 0.25 Fog NULL 54 54 100% 29.94 1013.2
09 20:51 S 6 0.15 Fog VV001 54 54 100% 29.93 1012.9
09 19:51 S 3 0.15 Fog VV001 54 54 100% 29.92 1012.5
09 18:51 Calm 10.00 Fair CLR 59 55 87% 29.9 1011.8
09 17:51 SW 5 10.00 Fair CLR 64 55 73% 29.9 1011.4
09 16:51 SW 6 10.00 Fair CLR 66.9 55 70 57 66% 29.91 1011.6
09 15:51 W 6 10.00 Fair CLR 68 55.9 65% 29.92 1011.6
09 14:51 W 7 10.00 Fair CLR 66 55.9 70% 29.94 1012.6
09 13:51 W 6 10.00 Fair CLR 66.9 57 71% 29.95 1012.7
09 12:51 Vrbl 6 10.00 Fair CLR 64 57 78% 29.96 1013.4
09 11:51 Vrbl 5 6.00 Fog/Mist OVC004 59 57 93% 29.97 1013.9
09 10:51 W 5 0.25 Fog OVC002 57 57 57.9 54 100% 29.97 1014.1
09 09:51 E 3 0.15 Fog VV001 57 55.9 96% 29.96 1013.9
09 08:51 E 6 0.15 Fog VV001 55.9 55.9 100% 29.95 1013.8
09 07:51 E 7 0.15 Fog VV002 55 55 100% 29.95 1013.7
09 06:51 E 7 0.15 Fog VV001 55 55 100% 29.94 1013.3
09 05:51 E 6 0.15 Fog VV002 55 55 100% 29.93 1012.9
09 04:51 E 6 0.15 Fog NULL 54 54 55 53.1 100% 29.94 1012.7
09 03:51 E 7 0.15 Fog VV001 55 55 100% 29.94 1012.7
09 02:51 E 6 0.15 Fog VV002 54 54 100% 29.94 1012.8
09 01:51 E 6 0.15 Fog VV002 54 54 100% 29.95 1013.3
09 00:51 SE 3 0.15 Fog VV001 54 54 100% 29.97 1013.8
08 23:51 S 5 0.15 Fog VV001 54 54 100% 29.97 1013.9
08 22:51 S 3 0.15 Fog VV002 54 54 61 53.1 100% 29.98 1014.5
08 21:51 S 3 0.15 Fog VV002 53.1 53.1 100% 29.98 1014.7
08 20:51 W 7 0.15 Fog NULL 54 54 100% 29.97 1014.3
08 19:51 SW 8 0.15 Fog NULL 54 54 100% 29.96 1014.0
08 18:51 SW 12 0.15 Fog VV001 55 55 100% 29.95 1013.7
08 17:51 SW 12 0.15 Fog VV001 57 55.9 96% 29.96 1013.7
08 16:51 W 9 10.00 Fair CLR 61 55 66 59 81% 29.96 1013.7
08 15:51 SW 8 10.00 Fair CLR 64 55.9 75% 29.98 1014.0
08 14:51 W 9 10.00 Fair CLR 64 55.9 75% 30 1014.7
08 13:51 W 8 10.00 Fair CLR 64 55.9 75% 30.01 1015.3
08 12:51 NW 6 10.00 Fair CLR 64 55.9 75% 30.02 1015.6
08 11:51 W 6 10.00 Fair CLR 64.9 55.9 73% 30.03 1015.7
08 10:51 W 7 10.00 Fair CLR 59 55 59 54 87% 30.04 1016.3
08 09:51 Calm 10.00 Overcast OVC002 57 55.9 96% 30.03 1016.5
08 08:51 Calm 0.15 Fog VV001 55 55 100% 30.03 1016.3
08 07:51 Calm 0.15 Fog VV001 55 55 100% 30.03 1016.1
08 06:51 N 5 0.15 Fog VV002 54 54 100% 30.02 1015.6
08 05:51 W 3 0.15 Fog VV001 54 54 100% 30.01 1015.1
08 04:51 Calm 0.15 Fog VV001 54 54 55 53.1 100% 30 1014.8
08 03:51 Calm 0.15 Fog VV001 54 54 100% 29.99 1014.6
08 02:51 E 5 0.15 Fog VV002 55 55 100% 30 1015.0
08 01:51 SE 6 0.15 Fog VV001 54 54 100% 30.01 1015.3
08 00:51 SE 5 0.15 Fog VV001 54 54 100% 30.02 1015.5
07 23:51 Calm 10.00 Fair CLR 54 53.1 97% 30.02 1015.7
07 22:51 S 3 0.25 Fog VV002 54 54 64.9 53.1 100% 30.02 1015.6
07 21:51 SW 3 0.25 Fog VV002 53.1 53.1 100% 30.03 1015.8
07 20:51 Calm 5.00 Fog/Mist CLR 54 52 93% 30.01 1015.2
07 19:51 Calm 10.00 Fair CLR 55.9 52 87% 29.99 1015.0
07 18:51 W 3 10.00 Fair CLR 62.1 52 70% 29.98 1014.1
07 17:51 SW 5 10.00 Fair CLR 64 53.1 68% 29.98 1014.1
07 16:51 SW 9 10.00 Fair CLR 64.9 54 66 62.1 68% 29.98 1013.8
07 15:51 SW 7 10.00 Fair CLR 64.9 54 68% 29.99 1014.2
07 14:51 SW 10 10.00 Fair CLR 63 55 76% 30 1015.0
Date Time (pdt) Wind (mph) Vis. (mi.) Weather Sky Cond. Air Dwpt Max. Min. Relative Humidity Wind Chill (°F) Heat Index (°F) altimeter (in) sea level (mb) 1 hr 3 hr 6 hr
6 hour
Temperature (ºF) Pressure Precipitation (in)